Terminal Aerodrome Forecast
Issued by NWS

Home | Current Version | Previous Version | Text Only | Print | Product List | Glossary On
Versions: 1 2 3 4 5 6 7 8 9 10 11 12 13 14 15 16 17 18 19 20 21 22 23 24 25 26 27 28 29 30 31 32 33 34 35 36 37 38 39 40 41 42
000
FTUS42 KRAH 251137 CCA
TAFINT
TAF COR
KINT 251137Z 2512/2612 20006KT P6SM SCT250
      TEMPO 2521/2524 19006G15KT
     FM260700 19003KT 5SM BR OVC060
     FM260900 23003KT 2SM BR OVC009=

USA.gov is the U.S. government's official web portal to all federal, state and local government web resources and services.